• Join FlightAware (Why Join?)
  • Login
  • US Flag 
04:45AM EDT


 

Airport Tracker/Info


-or-


 

Live Flight TrackerFlight Track Log ✈ CTL17 ✈ 20-Jun-2013 ✈ KYIP - KBKL

Flight Track Log - Related Links

Times and Time Zones

All times are in EDT time to prevent confusion due to time zone crossing. See the CTL17 flight status page for this flight to view local times or setup timezone preferences in your user account.

Time Position Orientation Groundspeed Altitude Reporting Facility
EDT Latitude Longitude Course Direction KTS MPH feet Rate Location/Type
05:27PM 42.1939 -83.5764 233° Southwest 142 163 2,000  Level Cleveland Center
05:28PM 42.1561 -83.5942 199° South 150 173 2,600 540 Climbing Cleveland Center
05:29PM 42.1142 -83.5978 184° South 156 180 3,100 180 Climbing Cleveland Center
05:30PM 42.0711 -83.5678 153° Southeast 168 193 3,000 -60 Descending Cleveland Center
05:31PM 42.0497 -83.5081 116° Southeast 168 193 3,000  Level Cleveland Center
05:32PM 42.0367 -83.4489 107° East 165 190 3,100  Climbing Cleveland Center
05:33PM 42.0278 -83.3842 100° East 166 191 3,000 -60 Descending Cleveland Center
05:34PM 42.0144 -83.3361 110° East 167 192 3,000  Level Cleveland Center
05:35PM 41.9947 -83.2850 117° Southeast 167 192 3,000  Level Cleveland Center
05:36PM 41.9714 -83.2142 114° Southeast 169 194 3,100 240 Climbing Cleveland Center
05:37PM 41.9561 -83.1575 110° East 169 194 3,600 540 Climbing Cleveland Center
05:38PM 41.9425 -83.1067 110° East 167 192 4,100 480 Climbing Cleveland Center
05:38PM 41.9308 -83.0700 113° Southeast 169 194 4,400 420 Climbing Cleveland Center
05:39PM 41.9156 -83.0108 109° East 168 193 4,900 240 Climbing Cleveland Center
05:40PM 41.8958 -82.9514 114° Southeast 171 197 5,000 60 Climbing Cleveland Center
05:41PM 41.8822 -82.9092 113° Southeast 180 207 5,000  Level Cleveland Center
05:42PM 41.8647 -82.8444 110° East 179 206 5,000  Level Cleveland Center
05:43PM 41.8392 -82.7683 114° Southeast 175 201 5,000  Level Cleveland Center
05:44PM 41.8294 -82.7206 105° East 177 204 5,000  Level Cleveland Center
05:45PM 41.8161 -82.6617 107° East 176 203 5,000  Level Cleveland Center
05:46PM 41.8006 -82.5942 107° East 178 205 5,000  Level Cleveland Center
05:47PM 41.7872 -82.5242 104° East 178 205 5,000  Level Cleveland Center
05:48PM 41.7714 -82.4625 109° East 179 206 5,000  Level Cleveland Center
05:49PM 41.7558 -82.3981 108° East 177 204 5,000  Level Cleveland Center
05:50PM 41.7422 -82.3364 106° East 178 205 5,000  Level Cleveland Center
05:51PM 41.7286 -82.2747 106° East 179 206 5,000 -240 Level Cleveland Center
05:52PM 41.7128 -82.2075 107° East 185 213 4,600 -540 Descending Cleveland Center
05:53PM 41.6972 -82.1322 105° East 192 221 3,900 -600 Descending Cleveland Center
05:54PM 41.6836 -82.0650 105° East 190 219 3,400 -600 Descending Cleveland Center
05:55PM 41.6656 -82.0006 111° Southeast 182 209 2,800 -540 Descending Cleveland Center
05:56PM 41.6517 -81.9364 106° East 177 204 2,400 -480 Descending Cleveland Center
05:57PM 41.6381 -81.8722 106° East 171 197 1,900 -300 Descending Cleveland Center
05:58PM 41.6031 -81.8272 136° Southeast 162 186 1,900 -180 Level Cleveland Center
05:59PM 41.5722 -81.7878 136° Southeast 161 185 1,600 -240 Descending Cleveland Center
06:00PM 41.5392 -81.7483 138° Southeast 149 171 1,500 -300 Descending Cleveland Center
06:01PM 41.5103 -81.7144 139° Southeast 119 137 1,000 -540 Descending Cleveland Center
06:03PM 41.5175 -81.6833 108° East  Level Estimated
06:10PM 41.5175 -81.6833 108° East  Level Estimated